Time;durP1;ratioP1;P1;durP2;ratioP2;P2;SDS_P1;SDS_P2;PMS_P1;PMS_P2;Temp;Humidity;BMP_temperature;BMP_pressure;BME280_temperature;BME280_humidity;BME280_pressure;Samples;Min_cycle;Max_cycle;Signal;HPM_P1;HPM_P2
2023/04/14 00:00:14;;;;;;;3.10;2.27;;;5.80;99.90;;;;;;4921920;29;20684;-66
2023/04/14 00:02:44;;;;;;;3.37;2.70;;;6.00;99.90;;;;;;4930144;29;20231;-66
2023/04/14 00:05:13;;;;;;;2.57;2.37;;;5.90;99.90;;;;;;4929842;29;20980;-67
2023/04/14 00:07:41;;;;;;;3.33;2.63;;;5.70;99.90;;;;;;4936739;29;20242;-66
2023/04/14 00:10:10;;;;;;;2.70;2.50;;;5.90;99.90;;;;;;4937220;29;20236;-66
2023/04/14 00:12:38;;;;;;;3.13;2.83;;;6.10;99.90;;;;;;4922007;29;20483;-66
2023/04/14 00:15:07;;;;;;;3.77;2.60;;;6.10;99.90;;;;;;4922444;29;20229;-66
2023/04/14 00:17:35;;;;;;;3.83;2.90;;;6.00;99.90;;;;;;4928915;29;20319;-67
2023/04/14 00:20:07;;;;;;;2.80;2.60;;;6.00;99.90;;;;;;4933269;29;20598;-66
2023/04/14 00:22:35;;;;;;;3.60;2.80;;;5.90;99.90;;;;;;4940236;29;20307;-65
2023/04/14 00:25:03;;;;;;;3.33;2.63;;;6.00;99.90;;;;;;4938051;29;20271;-66
2023/04/14 00:27:31;;;;;;;4.67;2.47;;;6.10;99.90;;;;;;4938253;29;20263;-67
2023/04/14 00:29:59;;;;;;;3.20;2.90;;;6.20;99.90;;;;;;4936810;29;20239;-67
2023/04/14 00:32:27;;;;;;;5.53;3.00;;;6.00;99.90;;;;;;4937412;29;20241;-66
2023/04/14 00:34:56;;;;;;;3.43;2.90;;;6.10;99.90;;;;;;4927594;29;20674;-66
2023/04/14 00:37:25;;;;;;;3.00;2.53;;;5.90;99.90;;;;;;4926220;29;20582;-67
2023/04/14 00:39:53;;;;;;;4.37;3.23;;;5.80;99.90;;;;;;4935630;29;20687;-66
2023/04/14 00:42:21;;;;;;;3.30;2.90;;;5.80;99.90;;;;;;4918891;29;20228;-64
2023/04/14 00:44:50;;;;;;;3.80;2.90;;;5.40;99.90;;;;;;4917639;29;20233;-65
2023/04/14 00:47:18;;;;;;;3.20;2.90;;;5.20;99.90;;;;;;4927468;29;20681;-67
2023/04/14 00:49:46;;;;;;;6.20;3.20;;;5.00;99.90;;;;;;4929860;29;20709;-66
2023/04/14 00:52:15;;;;;;;4.43;2.70;;;4.90;99.90;;;;;;4937658;29;20226;-66
2023/04/14 00:54:44;;;;;;;4.90;3.10;;;5.20;99.90;;;;;;4936304;29;20240;-66
2023/04/14 00:57:13;;;;;;;4.10;2.90;;;5.50;99.90;;;;;;4937832;29;20502;-66
2023/04/14 00:59:41;;;;;;;4.73;3.13;;;5.60;99.90;;;;;;4936180;29;20238;-64
2023/04/14 01:02:09;;;;;;;3.77;3.27;;;5.70;99.90;;;;;;4939581;29;20246;-66
2023/04/14 01:04:38;;;;;;;4.10;2.90;;;5.60;99.90;;;;;;4932409;29;20244;-64
2023/04/14 01:07:22;;;;;;;3.27;2.93;;;5.20;99.90;;;;;;4935928;29;20235;-67
2023/04/14 01:09:52;;;;;;;4.27;3.17;;;5.40;99.90;;;;;;4935756;29;20485;-66
2023/04/14 01:12:31;;;;;;;3.87;3.47;;;5.60;99.90;;;;;;4918301;29;20223;-67
2023/04/14 01:15:08;;;;;;;2.30;2.10;;;5.50;99.90;;;;;;4932767;29;20767;-67
2023/04/14 01:17:42;;;;;;;2.03;1.83;;;5.30;99.90;;;;;;4939564;29;20243;-67
2023/04/14 01:20:18;;;;;;;3.40;2.53;;;5.30;99.90;;;;;;4930229;29;20227;-65
2023/04/14 01:22:53;;;;;;;2.97;2.43;;;5.10;99.90;;;;;;4936962;29;20466;-67
2023/04/14 01:25:43;;;;;;;3.30;3.00;;;5.10;99.90;;;;;;4935800;29;20231;-66
2023/04/14 01:28:29;;;;;;;3.60;3.30;;;5.10;99.90;;;;;;4951877;29;20245;-66
2023/04/14 01:31:10;;;;;;;4.90;3.53;;;5.20;99.90;;;;;;4936593;29;20729;-67
2023/04/14 01:33:41;;;;;;;6.37;3.87;;;5.30;99.90;;;;;;4958795;28;20228;-63
2023/04/14 01:36:13;;;;;;;4.53;3.67;;;5.30;99.90;;;;;;4929579;29;20251;-67
2023/04/14 01:38:45;;;;;;;5.97;4.27;;;5.40;99.90;;;;;;4943615;29;20635;-67
2023/04/14 01:41:16;;;;;;;6.10;3.70;;;5.10;99.90;;;;;;4922740;29;20245;-67
2023/04/14 01:43:47;;;;;;;5.23;3.80;;;4.90;99.90;;;;;;4917645;29;20729;-66
2023/04/14 01:46:18;;;;;;;6.57;3.83;;;5.00;99.90;;;;;;4934399;29;20749;-66
2023/04/14 01:48:49;;;;;;;5.10;3.77;;;5.30;99.90;;;;;;4925953;29;20228;-67
2023/04/14 01:51:19;;;;;;;5.97;4.27;;;5.30;99.90;;;;;;4917570;29;20327;-67
2023/04/14 01:53:50;;;;;;;4.77;4.00;;;5.40;99.90;;;;;;4917320;29;20484;-67
2023/04/14 01:56:19;;;;;;;4.43;3.60;;;5.00;99.90;;;;;;4932057;29;20700;-67
2023/04/14 01:58:49;;;;;;;3.33;3.03;;;5.30;99.90;;;;;;4946127;29;20695;-67
2023/04/14 02:01:20;;;;;;;3.20;2.90;;;4.90;99.90;;;;;;4934802;29;20298;-66
2023/04/14 02:03:49;;;;;;;3.90;3.27;;;4.90;99.90;;;;;;4929007;29;20775;-66
2023/04/14 02:06:20;;;;;;;3.80;3.03;;;4.80;99.90;;;;;;4922066;29;20235;-67
2023/04/14 02:08:48;;;;;;;3.43;2.80;;;4.70;99.90;;;;;;4929254;29;20482;-67
2023/04/14 02:11:19;;;;;;;3.40;2.90;;;5.10;99.90;;;;;;4922148;29;20469;-65
2023/04/14 02:13:49;;;;;;;3.27;2.63;;;5.00;99.90;;;;;;4917031;29;20464;-67
2023/04/14 02:16:19;;;;;;;2.87;2.67;;;5.20;99.90;;;;;;4921278;29;20510;-67
2023/04/14 02:18:48;;;;;;;4.13;2.60;;;5.20;99.90;;;;;;4926683;29;20956;-67
2023/04/14 02:21:18;;;;;;;2.83;2.53;;;5.10;99.90;;;;;;4917094;29;20224;-67
2023/04/14 02:23:46;;;;;;;3.50;2.40;;;5.20;99.90;;;;;;4917014;29;20251;-67
2023/04/14 02:26:18;;;;;;;2.50;2.30;;;5.00;99.90;;;;;;4916980;29;20994;-67
2023/04/14 02:28:50;;;;;;;3.13;2.57;;;4.60;99.90;;;;;;4930405;29;20230;-67
2023/04/14 02:31:25;;;;;;;3.27;2.80;;;4.80;99.90;;;;;;4935348;29;20239;-66
2023/04/14 02:33:55;;;;;;;3.03;2.70;;;4.90;99.90;;;;;;4935757;29;20474;-66
2023/04/14 02:36:31;;;;;;;4.43;3.07;;;5.10;99.90;;;;;;4921862;29;21069;-65
2023/04/14 02:39:01;;;;;;;3.10;2.80;;;5.10;99.90;;;;;;4930298;29;20470;-67
2023/04/14 02:41:33;;;;;;;2.97;2.67;;;5.00;99.90;;;;;;4919328;29;20500;-67
2023/04/14 02:44:05;;;;;;;3.40;3.10;;;5.10;99.90;;;;;;4916842;29;20967;-66
2023/04/14 02:46:39;;;;;;;3.50;3.20;;;5.10;99.90;;;;;;4936788;29;20520;-66
2023/04/14 02:49:10;;;;;;;4.40;3.20;;;5.10;99.90;;;;;;4923136;29;20511;-66
2023/04/14 02:51:44;;;;;;;4.37;3.07;;;5.00;99.90;;;;;;4915329;29;20526;-67
2023/04/14 02:54:14;;;;;;;4.87;3.30;;;5.10;99.90;;;;;;4915377;29;20515;-66
2023/04/14 02:56:45;;;;;;;3.70;3.10;;;5.00;99.90;;;;;;4915323;29;20548;-67
2023/04/14 02:59:14;;;;;;;4.20;3.40;;;5.00;99.90;;;;;;4932453;29;20495;-67
2023/04/14 03:01:58;;;;;;;3.70;3.33;;;5.10;99.90;;;;;;4937818;28;20244;-66
2023/04/14 03:04:28;;;;;;;3.93;3.23;;;5.10;99.90;;;;;;4933868;29;21022;-66
2023/04/14 03:06:58;;;;;;;4.03;3.30;;;5.10;99.90;;;;;;4915902;29;20298;-66
2023/04/14 03:09:27;;;;;;;5.90;4.23;;;4.80;99.90;;;;;;4932086;29;20476;-66
2023/04/14 03:11:56;;;;;;;4.67;4.10;;;4.80;99.90;;;;;;4916104;29;20476;-67
2023/04/14 03:14:27;;;;;;;3.63;3.20;;;4.40;99.90;;;;;;4930995;29;20928;-66
2023/04/14 03:16:57;;;;;;;3.73;3.00;;;4.10;99.90;;;;;;4921935;29;20574;-65
2023/04/14 03:19:28;;;;;;;3.93;3.60;;;4.10;99.90;;;;;;4924018;29;20469;-66
2023/04/14 03:21:58;;;;;;;4.30;3.37;;;4.50;99.90;;;;;;4915091;29;20480;-67
2023/04/14 03:24:31;;;;;;;5.30;4.43;;;4.60;99.90;;;;;;4914886;29;20547;-66
2023/04/14 03:27:02;;;;;;;4.37;3.70;;;4.70;99.90;;;;;;4916677;29;20508;-67
2023/04/14 03:29:40;;;;;;;4.87;3.83;;;4.20;99.90;;;;;;4935157;29;20859;-66
2023/04/14 03:32:11;;;;;;;5.50;4.10;;;4.20;99.90;;;;;;4948501;29;20483;-64
2023/04/14 03:34:42;;;;;;;5.30;4.67;;;4.70;99.90;;;;;;4934643;29;20565;-66
2023/04/14 03:37:16;;;;;;;6.10;4.67;;;4.80;99.90;;;;;;4931274;29;20558;-67
2023/04/14 03:39:49;;;;;;;5.63;4.87;;;5.00;99.90;;;;;;4939453;29;20479;-66
2023/04/14 03:42:19;;;;;;;6.60;4.90;;;4.70;99.90;;;;;;4933931;29;20484;-65
2023/04/14 03:44:53;;;;;;;5.33;4.47;;;4.80;99.90;;;;;;4933773;29;20224;-66
2023/04/14 03:47:25;;;;;;;6.17;4.70;;;4.30;99.90;;;;;;4933824;29;20539;-65
2023/04/14 03:49:59;;;;;;;7.17;5.63;;;4.20;99.90;;;;;;4926013;29;20472;-66
2023/04/14 03:52:33;;;;;;;5.30;4.47;;;3.90;99.90;;;;;;4933633;29;20483;-66
2023/04/14 03:55:06;;;;;;;6.90;4.87;;;4.00;99.90;;;;;;4949726;29;20491;-66
2023/04/14 03:57:39;;;;;;;7.33;5.10;;;4.30;99.90;;;;;;4926960;29;20553;-66
2023/04/14 04:00:10;;;;;;;7.83;5.50;;;4.30;99.90;;;;;;4937284;29;20476;-65
2023/04/14 04:02:43;;;;;;;6.87;5.60;;;4.60;99.90;;;;;;4938099;29;20838;-66
2023/04/14 04:05:13;;;;;;;6.87;5.10;;;4.70;99.90;;;;;;4929114;29;21109;-66
2023/04/14 04:07:43;;;;;;;7.23;4.97;;;4.50;99.90;;;;;;4937039;29;20809;-65
2023/04/14 04:10:13;;;;;;;7.43;5.83;;;4.40;99.90;;;;;;4932679;29;20483;-66
2023/04/14 04:12:43;;;;;;;5.30;4.70;;;4.10;99.90;;;;;;4933776;29;20486;-66
2023/04/14 04:15:12;;;;;;;5.00;4.50;;;3.80;99.90;;;;;;4918136;29;20842;-65
2023/04/14 04:17:44;;;;;;;6.53;4.73;;;3.70;99.90;;;;;;4945216;28;20482;-66
2023/04/14 04:20:15;;;;;;;4.40;4.00;;;3.50;99.90;;;;;;4924404;29;20477;-66
2023/04/14 04:22:46;;;;;;;5.47;4.93;;;3.50;99.90;;;;;;4917888;29;20481;-66
2023/04/14 04:25:15;;;;;;;7.53;4.73;;;3.40;99.90;;;;;;4917950;29;20476;-67
2023/04/14 04:27:50;;;;;;;5.73;4.77;;;3.40;99.90;;;;;;4928258;29;20470;-66
2023/04/14 04:30:19;;;;;;;8.77;5.80;;;3.40;99.90;;;;;;4937976;29;20986;-66
2023/04/14 04:32:50;;;;;;;8.80;5.97;;;3.60;99.90;;;;;;4936266;29;20514;-67
2023/04/14 04:35:18;;;;;;;10.43;7.37;;;3.80;99.90;;;;;;4929839;29;20494;-67
2023/04/14 04:37:48;;;;;;;12.00;6.33;;;4.10;99.90;;;;;;4935368;29;20235;-55
2023/04/14 04:40:16;;;;;;;13.10;8.53;;;4.30;99.90;;;;;;4931357;29;20515;-55
2023/04/14 04:42:45;;;;;;;12.93;8.43;;;4.50;99.90;;;;;;4917749;29;20473;-54
2023/04/14 04:45:31;;;;;;;12.33;8.13;;;4.40;99.90;;;;;;4946728;29;20557;-55
2023/04/14 04:48:00;;;;;;;14.50;10.20;;;4.50;99.90;;;;;;4928933;29;20460;-55
2023/04/14 04:50:28;;;;;;;10.83;9.63;;;4.50;99.90;;;;;;4925090;29;20531;-53
2023/04/14 04:52:56;;;;;;;12.43;9.37;;;4.60;99.90;;;;;;4936530;29;20240;-56
2023/04/14 04:55:25;;;;;;;12.90;8.63;;;4.60;99.90;;;;;;4935936;29;21139;-53
2023/04/14 04:57:53;;;;;;;14.20;8.97;;;4.70;99.90;;;;;;4937223;29;20351;-54
2023/04/14 05:00:21;;;;;;;14.90;10.17;;;4.70;99.90;;;;;;4936918;29;20974;-54
2023/04/14 05:02:50;;;;;;;12.17;9.47;;;4.90;99.90;;;;;;4937074;29;21033;-54
2023/04/14 05:05:19;;;;;;;13.67;9.37;;;4.70;99.90;;;;;;4936956;29;20527;-55
2023/04/14 05:07:47;;;;;;;10.43;8.00;;;4.60;99.90;;;;;;4937627;29;21021;-55
2023/04/14 05:10:16;;;;;;;11.47;9.17;;;4.40;99.90;;;;;;4936498;29;20474;-56
2023/04/14 05:12:44;;;;;;;11.57;7.70;;;3.90;99.90;;;;;;4936927;29;20504;-55
2023/04/14 05:15:12;;;;;;;12.67;8.90;;;3.70;99.90;;;;;;4937751;29;20479;-54
2023/04/14 05:17:40;;;;;;;14.03;9.97;;;4.30;99.90;;;;;;4943830;29;20815;-55
2023/04/14 05:20:09;;;;;;;11.17;8.90;;;4.70;99.90;;;;;;4936182;29;20283;-55
2023/04/14 05:22:38;;;;;;;14.63;9.77;;;4.70;99.90;;;;;;4934503;29;20558;-54
2023/04/14 05:25:09;;;;;;;11.10;9.40;;;4.30;99.90;;;;;;4935034;29;20549;-53
2023/04/14 05:27:39;;;;;;;9.67;7.67;;;4.10;99.90;;;;;;4932821;29;20502;-54
2023/04/14 05:30:09;;;;;;;7.30;6.60;;;3.80;99.90;;;;;;4937264;29;21043;-53
2023/04/14 05:32:37;;;;;;;7.47;5.70;;;3.60;99.90;;;;;;4936607;29;20242;-55
2023/04/14 05:35:05;;;;;;;8.40;6.70;;;3.70;99.90;;;;;;4927171;29;20517;-55
2023/04/14 05:37:33;;;;;;;7.97;6.97;;;3.60;99.90;;;;;;4930490;29;20499;-55
2023/04/14 05:40:05;;;;;;;10.30;6.73;;;3.60;99.90;;;;;;4934085;29;21079;-53
2023/04/14 05:42:34;;;;;;;7.17;6.33;;;3.60;99.90;;;;;;4935542;29;21005;-55
2023/04/14 05:45:02;;;;;;;6.77;5.93;;;3.60;99.90;;;;;;4936986;29;20967;-53
2023/04/14 05:47:31;;;;;;;6.97;6.27;;;3.60;99.90;;;;;;4943514;29;20983;-54
2023/04/14 05:49:59;;;;;;;7.03;5.93;;;3.70;99.90;;;;;;4935103;29;20466;-55
2023/04/14 05:52:27;;;;;;;7.53;6.47;;;3.80;99.90;;;;;;4936754;29;20832;-55
2023/04/14 05:54:55;;;;;;;10.17;7.50;;;3.90;99.90;;;;;;4942612;29;20483;-55
2023/04/14 05:57:25;;;;;;;6.30;5.70;;;4.30;99.90;;;;;;4936158;29;20997;-55
2023/04/14 05:59:53;;;;;;;6.60;5.63;;;4.10;99.90;;;;;;4925232;29;20484;-55
2023/04/14 06:02:24;;;;;;;7.07;5.53;;;4.10;99.90;;;;;;4941287;29;21089;-55
2023/04/14 06:04:52;;;;;;;7.07;5.33;;;4.20;99.90;;;;;;4933715;28;20291;-56
2023/04/14 06:07:21;;;;;;;5.70;5.13;;;4.30;99.90;;;;;;4935872;29;20472;-56
2023/04/14 06:09:49;;;;;;;6.97;5.40;;;4.40;99.90;;;;;;4935706;29;20479;-56
2023/04/14 06:12:17;;;;;;;5.67;5.17;;;4.60;99.90;;;;;;4935736;29;20511;-56
2023/04/14 06:14:47;;;;;;;11.03;8.80;;;4.80;99.90;;;;;;4936151;29;20504;-56
2023/04/14 06:17:15;;;;;;;9.37;7.37;;;5.00;99.90;;;;;;4943011;29;20498;-55
2023/04/14 06:19:45;;;;;;;7.37;5.83;;;5.20;99.90;;;;;;4928281;29;20809;-54
2023/04/14 06:22:15;;;;;;;9.00;6.07;;;5.10;99.90;;;;;;4936005;29;20232;-53
2023/04/14 06:24:43;;;;;;;6.33;4.90;;;5.00;99.90;;;;;;4941045;29;20474;-55
2023/04/14 06:27:11;;;;;;;6.60;4.90;;;5.00;99.90;;;;;;4928792;29;20220;-55
2023/04/14 06:29:39;;;;;;;5.87;4.83;;;5.20;99.90;;;;;;4927437;29;20962;-54
2023/04/14 06:32:09;;;;;;;5.67;5.17;;;5.40;99.90;;;;;;4935014;29;20715;-56
2023/04/14 06:34:37;;;;;;;7.37;6.67;;;5.50;99.90;;;;;;4935715;29;20707;-56
2023/04/14 06:37:05;;;;;;;7.30;5.97;;;5.80;99.90;;;;;;4934116;29;20232;-55
2023/04/14 06:39:33;;;;;;;7.50;6.73;;;5.90;99.90;;;;;;4935737;29;20580;-55
2023/04/14 06:42:01;;;;;;;7.03;6.30;;;6.10;99.90;;;;;;4935700;29;20246;-55
2023/04/14 06:44:30;;;;;;;7.13;6.43;;;6.30;99.90;;;;;;4935867;29;20721;-54
2023/04/14 06:46:58;;;;;;;7.20;6.33;;;6.60;99.90;;;;;;4942355;29;20270;-55
2023/04/14 06:49:28;;;;;;;9.57;7.17;;;7.00;99.90;;;;;;4927529;29;20726;-54
2023/04/14 06:51:56;;;;;;;8.13;7.13;;;7.70;99.90;;;;;;4935668;29;20234;-54
2023/04/14 06:54:24;;;;;;;8.33;7.53;;;8.00;99.90;;;;;;4934336;29;20255;-54
2023/04/14 06:56:52;;;;;;;11.03;8.37;;;8.30;99.90;;;;;;4935531;29;20236;-53
2023/04/14 06:59:24;;;;;;;8.70;7.80;;;8.60;99.90;;;;;;4934917;29;20564;-55
2023/04/14 07:01:52;;;;;;;8.30;6.93;;;8.50;99.90;;;;;;4933799;29;20244;-53
2023/04/14 07:04:21;;;;;;;8.13;7.33;;;8.80;99.90;;;;;;4935329;29;20236;-54
2023/04/14 07:06:51;;;;;;;6.90;6.30;;;9.10;99.90;;;;;;4918360;29;20225;-52
2023/04/14 07:09:20;;;;;;;8.73;7.30;;;9.30;99.90;;;;;;4916786;29;20242;-54
2023/04/14 07:11:48;;;;;;;6.40;5.80;;;9.80;99.90;;;;;;4916579;29;20690;-53
2023/04/14 07:14:16;;;;;;;7.90;7.10;;;10.30;99.90;;;;;;4916664;29;20259;-56
2023/04/14 07:16:44;;;;;;;10.37;7.30;;;10.40;99.90;;;;;;4923125;29;20256;-53
2023/04/14 07:19:12;;;;;;;8.43;6.53;;;10.50;99.90;;;;;;4924088;29;20225;-56
2023/04/14 07:21:40;;;;;;;7.37;6.30;;;10.50;99.90;;;;;;4916494;29;20237;-54
2023/04/14 07:24:09;;;;;;;6.63;5.47;;;10.70;99.90;;;;;;4916652;29;20225;-54
2023/04/14 07:26:37;;;;;;;9.03;5.93;;;11.10;99.90;;;;;;4916214;29;20234;-55
2023/04/14 07:29:06;;;;;;;7.03;5.80;;;11.50;99.90;;;;;;4919482;29;20237;-54
2023/04/14 07:31:36;;;;;;;7.17;5.40;;;11.60;99.90;;;;;;4934803;29;20245;-54
2023/04/14 07:34:04;;;;;;;6.57;5.13;;;11.80;99.90;;;;;;4931926;29;20230;-53
2023/04/14 07:36:33;;;;;;;5.73;5.10;;;12.10;99.90;;;;;;4934892;29;20228;-54
2023/04/14 07:39:01;;;;;;;5.70;4.70;;;12.30;99.90;;;;;;4939294;29;20240;-52
2023/04/14 07:41:30;;;;;;;7.33;4.97;;;12.50;99.90;;;;;;4938860;29;20304;-52
2023/04/14 07:43:58;;;;;;;5.77;4.60;;;12.70;99.90;;;;;;4939493;29;20263;-53
2023/04/14 07:46:27;;;;;;;5.73;4.83;;;12.80;99.90;;;;;;4944233;29;20229;-54
2023/04/14 07:48:55;;;;;;;7.53;5.60;;;12.90;99.90;;;;;;4937562;28;20230;-53
2023/04/14 07:51:23;;;;;;;5.50;4.77;;;13.10;99.90;;;;;;4920040;29;20273;-54
2023/04/14 07:53:51;;;;;;;7.23;5.00;;;13.20;99.90;;;;;;4920047;29;20300;-52
2023/04/14 07:56:21;;;;;;;5.80;4.20;;;13.20;99.90;;;;;;4919634;29;20242;-54
2023/04/14 07:58:50;;;;;;;6.43;3.70;;;13.10;99.90;;;;;;4919795;29;20714;-51
2023/04/14 08:01:18;;;;;;;6.90;4.90;;;13.10;99.90;;;;;;4919456;29;20607;-50
2023/04/14 08:03:46;;;;;;;7.03;4.60;;;13.30;99.90;;;;;;4934739;29;20264;-52
2023/04/14 08:06:15;;;;;;;6.37;4.67;;;13.40;99.90;;;;;;4925438;29;20280;-50
2023/04/14 08:08:43;;;;;;;5.37;4.27;;;13.80;99.90;;;;;;4938538;29;20619;-52
2023/04/14 08:11:12;;;;;;;6.37;4.60;;;14.10;99.90;;;;;;4938676;29;20238;-49
2023/04/14 08:13:42;;;;;;;5.40;4.17;;;14.20;99.90;;;;;;4938519;29;20220;-51
2023/04/14 08:16:12;;;;;;;5.83;4.33;;;14.30;99.90;;;;;;4956880;29;20231;-54
2023/04/14 08:18:40;;;;;;;6.07;4.17;;;14.70;99.90;;;;;;4940266;29;20232;-50
2023/04/14 08:21:08;;;;;;;7.50;3.93;;;14.80;99.90;;;;;;4938565;29;20237;-52
2023/04/14 08:23:36;;;;;;;4.40;3.40;;;14.90;99.90;;;;;;4938078;29;20220;-54
2023/04/14 08:26:05;;;;;;;3.73;2.60;;;14.90;99.90;;;;;;4938320;29;20295;-52
2023/04/14 08:28:33;;;;;;;4.57;2.60;;;15.00;99.90;;;;;;4938338;29;20322;-50
2023/04/14 08:31:01;;;;;;;4.70;2.40;;;15.00;99.90;;;;;;4938058;28;20234;-52
2023/04/14 08:33:32;;;;;;;8.10;2.30;;;14.70;99.90;;;;;;4937763;29;20242;-51
2023/04/14 08:36:01;;;;;;;5.57;2.27;;;14.70;99.90;;;;;;4930331;29;20699;-50
2023/04/14 08:38:29;;;;;;;3.43;1.90;;;14.70;99.90;;;;;;4937994;29;20735;-52
2023/04/14 08:41:00;;;;;;;6.97;2.63;;;14.90;99.90;;;;;;4938046;29;20235;-53
2023/04/14 08:43:29;;;;;;;6.07;2.57;;;14.90;99.90;;;;;;4937433;29;20224;-53
2023/04/14 08:45:59;;;;;;;7.13;2.33;;;14.40;99.90;;;;;;4937413;29;20691;-50
2023/04/14 08:48:31;;;;;;;5.83;2.40;;;14.40;99.90;;;;;;4935676;29;20232;-53
2023/04/14 08:51:06;;;;;;;4.93;2.10;;;14.70;99.90;;;;;;4937723;29;20232;-52
2023/04/14 08:53:41;;;;;;;5.70;2.60;;;14.80;99.90;;;;;;4937557;29;20257;-53
2023/04/14 08:56:11;;;;;;;6.97;3.43;;;14.80;99.90;;;;;;4937956;29;20764;-53
2023/04/14 08:58:40;;;;;;;5.53;2.83;;;14.90;99.90;;;;;;4937436;29;20251;-53
2023/04/14 09:01:09;;;;;;;5.87;2.87;;;15.10;99.90;;;;;;4937426;29;20611;-54
2023/04/14 09:03:39;;;;;;;5.07;2.97;;;14.60;99.90;;;;;;4937398;29;20279;-52
2023/04/14 09:06:08;;;;;;;6.37;3.60;;;14.60;99.90;;;;;;4929024;29;20236;-52
2023/04/14 09:08:36;;;;;;;8.13;3.50;;;14.80;99.90;;;;;;4937613;29;20598;-52
2023/04/14 09:11:04;;;;;;;5.67;3.13;;;15.00;99.90;;;;;;4937663;29;20274;-52
2023/04/14 09:13:33;;;;;;;8.00;3.70;;;15.10;99.90;;;;;;4935775;29;20254;-64
2023/04/14 09:16:02;;;;;;;7.33;2.93;;;15.00;99.90;;;;;;4929212;29;20238;-63
2023/04/14 09:18:31;;;;;;;8.80;3.35;;;15.20;99.90;;;;;;4932138;29;20545;-65
2023/04/14 09:21:04;;;;;;;5.40;3.00;;;15.60;99.90;;;;;;4937437;29;20775;-66
2023/04/14 09:23:52;;;;;;;4.93;3.07;;;15.50;99.90;;;;;;4937447;29;20235;-66
2023/04/14 09:26:20;;;;;;;7.70;3.03;;;15.50;99.90;;;;;;4937044;29;20718;-66
2023/04/14 09:28:48;;;;;;;5.83;3.07;;;15.00;99.90;;;;;;4936915;29;20295;-65
2023/04/14 09:31:17;;;;;;;8.37;3.30;;;15.10;99.90;;;;;;4934063;29;20242;-66
2023/04/14 09:33:49;;;;;;;7.83;3.27;;;15.20;99.90;;;;;;4943569;29;20712;-64
2023/04/14 09:36:20;;;;;;;6.83;2.77;;;15.30;99.90;;;;;;4930782;29;20231;-65
2023/04/14 09:38:49;;;;;;;5.70;3.00;;;15.60;99.90;;;;;;4936391;29;20235;-65
2023/04/14 09:41:18;;;;;;;5.90;2.67;;;15.50;99.90;;;;;;4934356;29;20694;-64
2023/04/14 09:43:46;;;;;;;9.00;2.90;;;16.00;99.90;;;;;;4935802;29;20236;-63
2023/04/14 09:46:15;;;;;;;7.63;3.20;;;16.30;99.90;;;;;;4936046;29;20284;-63
2023/04/14 09:48:53;;;;;;;8.37;2.77;;;16.50;99.90;;;;;;4928584;29;20239;-63
2023/04/14 09:51:26;;;;;;;5.87;2.53;;;16.50;99.90;;;;;;4936896;29;20746;-59
2023/04/14 09:53:54;;;;;;;7.40;2.47;;;16.50;99.90;;;;;;4935378;29;20326;-63
2023/04/14 09:56:27;;;;;;;7.10;2.20;;;16.30;99.90;;;;;;4936114;29;20704;-63
2023/04/14 09:58:59;;;;;;;7.80;2.50;;;16.40;99.90;;;;;;4936721;29;20236;-63
2023/04/14 10:01:31;;;;;;;7.30;2.60;;;16.50;99.90;;;;;;4936210;29;20608;-63
2023/04/14 10:04:01;;;;;;;8.80;2.87;;;16.60;99.90;;;;;;4933965;29;20489;-63
2023/04/14 10:06:31;;;;;;;5.37;2.17;;;16.80;99.90;;;;;;4935916;29;20267;-63
2023/04/14 10:08:59;;;;;;;8.27;2.50;;;16.60;99.90;;;;;;4936172;29;20318;-59
2023/04/14 10:11:31;;;;;;;5.60;1.90;;;16.70;99.90;;;;;;4928546;29;20232;-63
2023/04/14 10:14:00;;;;;;;5.90;1.87;;;16.90;99.90;;;;;;4936296;29;20220;-63
2023/04/14 10:16:29;;;;;;;4.97;1.90;;;17.20;99.90;;;;;;4942022;29;20595;-62
2023/04/14 10:18:57;;;;;;;6.17;1.87;;;17.50;99.90;;;;;;4919741;29;20240;-63
2023/04/14 10:21:26;;;;;;;8.53;1.83;;;17.50;99.90;;;;;;4935883;29;20220;-61
2023/04/14 10:23:57;;;;;;;8.60;1.83;;;17.70;99.90;;;;;;4936154;29;20231;-63
2023/04/14 10:26:26;;;;;;;5.83;1.93;;;17.80;99.90;;;;;;4935746;29;20244;-62
2023/04/14 10:28:55;;;;;;;5.93;1.53;;;17.80;99.90;;;;;;4936069;29;20239;-63
2023/04/14 10:31:27;;;;;;;5.20;1.70;;;17.60;99.90;;;;;;4934470;29;20227;-63
2023/04/14 10:33:55;;;;;;;6.30;1.83;;;17.60;99.90;;;;;;4932932;29;20260;-63
2023/04/14 10:36:25;;;;;;;5.60;1.90;;;17.40;99.90;;;;;;4933509;29;20307;-63
2023/04/14 10:39:00;;;;;;;7.53;2.03;;;17.50;99.90;;;;;;4935711;29;20688;-63
2023/04/14 10:41:44;;;;;;;5.87;1.80;;;17.40;99.90;;;;;;4934562;29;20258;-63
2023/04/14 10:44:23;;;;;;;6.53;1.83;;;17.40;99.90;;;;;;4930412;29;20670;-63
2023/04/14 10:46:52;;;;;;;6.10;1.90;;;17.30;99.90;;;;;;4925763;29;20240;-63
2023/04/14 10:49:24;;;;;;;7.57;2.20;;;16.90;99.90;;;;;;4925773;29;20270;-63
2023/04/14 10:51:52;;;;;;;5.43;1.73;;;16.90;99.90;;;;;;4925513;29;20244;-63
2023/04/14 10:54:22;;;;;;;7.00;2.27;;;16.80;99.90;;;;;;4926164;29;20243;-57
2023/04/14 10:57:09;;;;;;;7.17;2.07;;;17.20;99.90;;;;;;4925063;29;20245;-63
2023/04/14 10:59:42;;;;;;;7.23;2.07;;;16.80;99.90;;;;;;4925655;29;20700;-61
2023/04/14 11:02:23;;;;;;;5.03;1.60;;;16.70;99.90;;;;;;4925804;29;20325;-59
2023/04/14 11:04:59;;;;;;;6.70;2.10;;;17.00;99.90;;;;;;4925217;29;20704;-63
2023/04/14 11:07:28;;;;;;;5.80;2.03;;;16.30;99.90;;;;;;4925053;29;21054;-63
2023/04/14 11:10:04;;;;;;;6.37;2.40;;;16.40;99.90;;;;;;4925728;29;20232;-62
2023/04/14 11:12:42;;;;;;;7.50;2.43;;;16.20;99.90;;;;;;4925278;29;20239;-59
2023/04/14 11:15:13;;;;;;;6.87;2.70;;;16.60;99.90;;;;;;4924108;29;20279;-58
2023/04/14 11:17:42;;;;;;;5.57;1.70;;;17.10;99.90;;;;;;4918205;29;20246;-58
2023/04/14 11:20:15;;;;;;;6.47;1.97;;;17.30;99.90;;;;;;4918629;29;20326;-63
2023/04/14 11:22:44;;;;;;;8.63;2.70;;;17.20;99.90;;;;;;4922495;29;20240;-63
2023/04/14 11:25:15;;;;;;;5.60;1.87;;;16.90;99.90;;;;;;4928062;29;20232;-63
2023/04/14 11:27:45;;;;;;;5.03;1.93;;;17.00;99.90;;;;;;4932354;29;20228;-63
2023/04/14 11:30:15;;;;;;;7.67;2.23;;;17.40;99.90;;;;;;4934511;29;20224;-63
2023/04/14 11:32:47;;;;;;;6.33;1.70;;;17.20;99.90;;;;;;4934188;29;20261;-63
2023/04/14 11:35:16;;;;;;;5.03;2.00;;;17.30;99.90;;;;;;4931035;29;20768;-63
2023/04/14 11:37:45;;;;;;;6.33;1.70;;;17.00;99.90;;;;;;4935158;29;20236;-63
2023/04/14 11:40:15;;;;;;;5.87;2.13;;;17.20;99.90;;;;;;4935159;29;20577;-62
2023/04/14 11:42:45;;;;;;;4.07;1.43;;;17.10;99.90;;;;;;4934926;29;20263;-63
2023/04/14 11:45:15;;;;;;;5.70;1.40;;;17.10;99.90;;;;;;4933079;29;20303;-63
2023/04/14 11:47:47;;;;;;;4.97;1.97;;;17.40;99.90;;;;;;4932005;29;20570;-63
2023/04/14 11:50:17;;;;;;;4.27;1.73;;;17.50;99.90;;;;;;4934789;29;20583;-61
2023/04/14 11:52:46;;;;;;;6.40;1.67;;;17.10;99.90;;;;;;4934541;29;20244;-63
2023/04/14 11:55:16;;;;;;;6.13;1.60;;;17.00;99.90;;;;;;4928271;29;20269;-63
2023/04/14 11:57:45;;;;;;;5.90;1.53;;;16.70;99.90;;;;;;4933120;29;20232;-63
2023/04/14 12:00:15;;;;;;;6.37;1.70;;;16.80;99.90;;;;;;4934408;29;20234;-63
2023/04/14 12:02:44;;;;;;;5.37;1.60;;;16.70;99.90;;;;;;4929825;29;20238;-62
2023/04/14 12:05:13;;;;;;;4.60;1.70;;;16.70;99.90;;;;;;4923622;29;20712;-63
2023/04/14 12:07:43;;;;;;;5.50;1.57;;;16.60;99.90;;;;;;4927040;29;20324;-63
2023/04/14 12:10:12;;;;;;;5.47;1.47;;;16.20;99.90;;;;;;4916253;29;20233;-63
2023/04/14 12:12:41;;;;;;;7.30;1.90;;;16.00;99.90;;;;;;4927550;29;20236;-62
2023/04/14 12:15:12;;;;;;;3.80;1.63;;;16.10;99.90;;;;;;4929208;29;20685;-63
2023/04/14 12:17:41;;;;;;;4.93;1.90;;;16.00;99.90;;;;;;4923248;29;20239;-62
2023/04/14 12:20:15;;;;;;;5.50;1.50;;;16.00;99.90;;;;;;4918836;29;20228;-63
2023/04/14 12:22:43;;;;;;;5.83;1.70;;;16.20;99.90;;;;;;4917953;29;20241;-63
2023/04/14 12:25:12;;;;;;;6.67;1.50;;;16.30;99.90;;;;;;4930466;29;20220;-63
2023/04/14 12:27:41;;;;;;;5.70;1.80;;;16.30;99.90;;;;;;4935000;29;20222;-63
2023/04/14 12:30:10;;;;;;;7.87;2.00;;;16.00;99.90;;;;;;4940732;29;20239;-63
2023/04/14 12:32:39;;;;;;;4.83;1.50;;;16.20;99.90;;;;;;4956884;28;20235;-62
2023/04/14 12:35:08;;;;;;;5.57;1.50;;;16.30;99.90;;;;;;4936109;29;20751;-63
2023/04/14 12:37:37;;;;;;;5.20;1.50;;;16.30;99.90;;;;;;4937791;29;20738;-63
2023/04/14 12:40:07;;;;;;;4.90;1.40;;;16.50;99.90;;;;;;4937949;29;20323;-63
2023/04/14 12:42:47;;;;;;;4.60;1.40;;;16.80;99.90;;;;;;4937729;29;20232;-62
2023/04/14 12:45:15;;;;;;;6.40;1.80;;;16.80;99.90;;;;;;4932763;29;20223;-62
2023/04/14 12:47:52;;;;;;;4.80;1.30;;;17.20;99.90;;;;;;4936566;29;20242;-62
2023/04/14 12:50:26;;;;;;;6.17;1.83;;;17.30;99.90;;;;;;4932153;29;20236;-62
2023/04/14 12:52:55;;;;;;;3.60;1.50;;;16.90;99.90;;;;;;4937031;29;20238;-63
2023/04/14 12:55:26;;;;;;;2.57;1.10;;;17.00;99.90;;;;;;4929011;29;20700;-62
2023/04/14 12:57:55;;;;;;;4.37;1.43;;;16.90;99.90;;;;;;4928166;29;20228;-63
2023/04/14 13:00:25;;;;;;;2.73;1.30;;;16.30;99.90;;;;;;4936620;29;20239;-62
2023/04/14 13:02:54;;;;;;;4.00;1.23;;;16.20;99.90;;;;;;4937009;29;20231;-63
2023/04/14 13:05:23;;;;;;;4.70;1.70;;;16.30;99.90;;;;;;4933436;29;20232;-63